Time;durP1;ratioP1;P1;durP2;ratioP2;P2;SDS_P1;SDS_P2;PMS_P1;PMS_P2;Temp;Humidity;BMP_temperature;BMP_pressure;BME280_temperature;BME280_humidity;BME280_pressure;Samples;Min_cycle;Max_cycle;Signal;HPM_P1;HPM_P2
2023/03/27 00:01:05;;;;;;;6.25;2.20;;;;;;;8.31;86.54;99748.47;5024843;28;20501;-73
2023/03/27 00:03:31;;;;;;;7.07;2.25;;;;;;;8.38;86.22;99732.44;5025272;28;20037;-75
2023/03/27 00:06:15;;;;;;;5.50;2.47;;;;;;;8.58;85.69;99740.84;5030163;28;20033;-76
2023/03/27 00:08:41;;;;;;;7.18;2.25;;;;;;;8.56;85.39;99709.03;5029579;28;20044;-76
2023/03/27 00:11:07;;;;;;;7.10;2.65;;;;;;;8.78;85.26;99723.50;5031364;28;20033;-75
2023/03/27 00:13:33;;;;;;;4.82;2.58;;;;;;;8.89;84.32;99722.13;5030379;28;20034;-72
2023/03/27 00:15:59;;;;;;;8.20;2.10;;;;;;;8.90;84.25;99723.03;5022977;28;20041;-77
2023/03/27 00:18:26;;;;;;;10.20;2.38;;;;;;;8.93;84.43;99735.09;5032396;28;20494;-77
2023/03/27 00:20:52;;;;;;;6.70;2.67;;;;;;;8.55;85.05;99685.03;5032544;28;20057;-71
2023/03/27 00:23:21;;;;;;;6.82;2.50;;;;;;;8.35;86.65;99678.31;5032014;28;20033;-70
2023/03/27 00:25:48;;;;;;;7.00;3.03;;;;;;;8.29;86.56;99709.84;5032478;28;20144;-73
2023/03/27 00:28:15;;;;;;;5.70;2.38;;;;;;;8.15;82.88;99719.69;5013508;28;20042;-76
2023/03/27 00:30:41;;;;;;;6.78;2.40;;;;;;;8.28;81.86;99713.25;5026407;28;20029;-74
2023/03/27 00:33:09;;;;;;;4.82;2.00;;;;;;;8.46;81.66;99700.19;5029035;28;20545;-73
2023/03/27 00:35:35;;;;;;;9.90;2.50;;;;;;;8.53;82.10;99696.97;5030913;28;20036;-73
2023/03/27 00:38:00;;;;;;;5.57;2.20;;;;;;;8.35;81.21;99644.88;5032022;28;20026;-73
2023/03/27 00:40:26;;;;;;;9.85;2.60;;;;;;;8.82;80.32;99709.91;5031249;28;20061;-70
2023/03/27 00:42:56;;;;;;;9.15;2.47;;;;;;;8.76;80.73;99658.25;5029901;28;20110;-72
2023/03/27 00:45:27;;;;;;;6.60;2.85;;;;;;;9.11;80.30;99691.03;5031193;28;20377;-74
2023/03/27 00:47:57;;;;;;;7.60;2.70;;;;;;;9.15;78.58;99692.88;5030627;28;20021;-70
2023/03/27 00:50:27;;;;;;;6.07;2.88;;;;;;;9.15;78.05;99701.47;5031782;28;20048;-70
2023/03/27 00:52:58;;;;;;;7.50;2.70;;;;;;;8.78;79.49;99695.19;5031696;28;20033;-70
2023/03/27 00:55:29;;;;;;;5.20;2.90;;;;;;;8.65;79.18;99657.00;5031272;28;20065;-72
2023/03/27 00:58:02;;;;;;;8.25;3.00;;;;;;;8.90;79.73;99693.00;5030870;28;20092;-72
2023/03/27 01:00:28;;;;;;;8.30;2.83;;;;;;;9.00;79.41;99685.56;5029606;28;20040;-75
2023/03/27 01:02:54;;;;;;;6.20;2.78;;;;;;;9.01;79.66;99689.88;5031717;28;20025;-79
2023/03/27 01:05:20;;;;;;;5.95;3.15;;;;;;;8.92;80.52;99684.44;5031540;28;20392;-74
2023/03/27 01:07:47;;;;;;;4.60;2.65;;;;;;;8.95;81.25;99694.81;5031540;28;20024;-73
2023/03/27 01:10:15;;;;;;;11.13;2.88;;;;;;;8.74;82.52;99690.78;5029475;28;20431;-73
2023/03/27 01:12:58;;;;;;;8.07;3.08;;;;;;;8.57;82.44;99688.53;5031516;28;20030;-74
2023/03/27 01:15:33;;;;;;;10.43;3.70;;;;;;;8.51;81.74;99682.31;5031126;28;20057;-74
2023/03/27 01:18:24;;;;;;;7.25;3.03;;;;;;;8.43;81.54;99700.88;5031418;28;20480;-72
2023/03/27 01:21:04;;;;;;;8.70;3.08;;;;;;;8.43;82.28;99690.59;4988963;28;20050;-72
2023/03/27 01:24:13;;;;;;;6.82;2.67;;;;;;;8.35;82.55;99681.78;4989366;28;20129;-74
2023/03/27 01:26:56;;;;;;;8.32;2.90;;;;;;;8.22;82.72;99664.19;4930360;29;20043;-73
2023/03/27 01:29:28;;;;;;;6.25;3.10;;;;;;;8.20;84.29;99677.00;4931359;29;20047;-71
2023/03/27 01:32:09;;;;;;;8.25;3.08;;;;;;;8.05;86.18;99666.19;4931020;29;20042;-72
2023/03/27 01:34:59;;;;;;;6.55;2.55;;;;;;;7.99;88.41;99659.16;4930926;29;20449;-72
2023/03/27 01:37:40;;;;;;;5.22;2.35;;;;;;;7.97;90.26;99659.91;4930907;29;20090;-71
2023/03/27 01:40:24;;;;;;;7.70;2.45;;;;;;;7.79;91.16;99632.78;4931179;29;20486;-71
2023/03/27 01:42:58;;;;;;;8.60;2.60;;;;;;;7.68;90.75;99619.53;4931045;29;20079;-74
2023/03/27 01:45:40;;;;;;;7.28;2.75;;;;;;;7.91;90.28;99648.63;4931152;29;20127;-75
2023/03/27 01:48:11;;;;;;;8.75;2.72;;;;;;;7.63;89.99;99600.53;4930724;29;20039;-72
2023/03/27 01:51:28;;;;;;;8.82;2.88;;;;;;;7.99;90.18;99640.25;4930680;29;20167;-72
2023/03/27 01:54:11;;;;;;;9.43;2.95;;;;;;;8.07;88.55;99636.25;4837150;29;20041;-72
2023/03/27 01:56:50;;;;;;;12.20;2.90;;;;;;;8.17;87.12;99648.59;4839681;29;20136;-70
2023/03/27 01:59:17;;;;;;;5.05;2.65;;;;;;;8.24;86.33;99640.25;4874464;29;20048;-73
2023/03/27 02:01:52;;;;;;;5.57;2.60;;;;;;;8.05;86.37;99591.63;4873999;29;20100;-69
2023/03/27 02:04:23;;;;;;;5.57;2.25;;;;;;;8.37;86.22;99627.81;4924101;29;20636;-70
2023/03/27 02:06:56;;;;;;;5.40;2.13;;;;;;;8.43;84.28;99622.88;4930942;29;20463;-70
2023/03/27 02:09:45;;;;;;;4.22;2.10;;;;;;;8.35;83.49;99608.88;4930714;29;20039;-71
2023/03/27 02:12:30;;;;;;;4.00;1.98;;;;;;;8.40;82.43;99622.78;4930306;29;20154;-69
2023/03/27 02:15:06;;;;;;;4.47;1.90;;;;;;;8.30;82.09;99626.75;4930057;29;20044;-71
2023/03/27 02:17:37;;;;;;;6.68;2.00;;;;;;;8.18;82.63;99622.06;4930579;29;20040;-70
2023/03/27 02:20:15;;;;;;;4.90;1.85;;;;;;;7.86;81.81;99562.78;4930711;29;20039;-71
2023/03/27 02:22:47;;;;;;;4.15;1.73;;;;;;;8.13;81.29;99628.75;4930572;29;20056;-69
2023/03/27 02:25:45;;;;;;;5.43;1.90;;;;;;;7.89;82.15;99624.53;5011391;28;20040;-71
2023/03/27 02:28:33;;;;;;;3.65;1.80;;;;;;;7.84;82.20;99615.81;4987825;28;20595;-68
2023/03/27 02:31:11;;;;;;;3.53;1.80;;;;;;;7.82;83.19;99616.56;4988151;28;20046;-69
2023/03/27 02:33:48;;;;;;;7.38;1.95;;;;;;;7.78;83.25;99607.88;4987957;28;20034;-70
2023/03/27 02:36:40;;;;;;;2.65;1.60;;;;;;;7.77;83.32;99611.28;4988156;28;20038;-71
2023/03/27 02:39:33;;;;;;;4.80;1.90;;;;;;;7.67;86.17;99604.09;4987822;28;20548;-74
2023/03/27 02:44:55;;;;;;;4.88;2.13;;;;;;;7.38;90.17;99591.09;5332215;22;20061;-69
2023/03/27 02:47:27;;;;;;;8.35;2.20;;;;;;;7.51;89.17;99606.09;5033979;28;20037;-69
2023/03/27 02:50:04;;;;;;;4.82;2.00;;;;;;;7.52;87.31;99597.56;5032203;28;20067;-72
2023/03/27 02:52:36;;;;;;;5.82;2.20;;;;;;;7.59;86.42;99603.81;5041321;28;20490;-71
2023/03/27 02:55:10;;;;;;;5.15;2.40;;;;;;;7.43;87.21;99585.28;5075816;22;20048;-69
2023/03/27 02:57:40;;;;;;;5.15;2.20;;;;;;;7.38;86.45;99578.25;5050395;28;20029;-69
2023/03/27 03:00:17;;;;;;;7.63;2.45;;;;;;;7.25;87.15;99543.56;5049281;28;20029;-69
2023/03/27 03:02:45;;;;;;;6.97;2.22;;;;;;;7.62;86.23;99593.63;5048283;28;20099;-68
2023/03/27 03:05:19;;;;;;;7.97;2.42;;;;;;;7.51;86.98;99585.53;5049887;28;20407;-68
2023/03/27 03:07:46;;;;;;;7.85;2.78;;;;;;;7.32;88.01;99568.63;5050141;28;20028;-71
2023/03/27 03:10:12;;;;;;;8.77;2.60;;;;;;;7.05;88.65;99533.47;5050163;28;20037;-69
2023/03/27 03:12:38;;;;;;;9.90;2.60;;;;;;;7.41;88.31;99576.69;5049843;28;20109;-69
2023/03/27 03:18:26;;;;;;;4.00;2.38;;;;;;;7.09;89.90;99555.84;5098036;22;20125;-68
2023/03/27 03:20:52;;;;;;;4.30;2.28;;;;;;;7.01;90.70;99556.41;5035854;28;20457;-68
2023/03/27 03:23:22;;;;;;;8.90;2.60;;;;;;;6.99;91.24;99573.41;5053019;28;20082;-73
2023/03/27 03:25:51;;;;;;;;;;;;;;;6.86;91.80;99572.97;5054576;28;20024;-68
2023/03/27 03:28:17;;;;;;;7.38;2.75;;;;;;;6.85;93.23;99576.34;5053502;28;20378;-69
2023/03/27 03:30:46;;;;;;;5.03;2.42;;;;;;;6.79;92.83;99561.59;5053831;28;20040;-70
2023/03/27 03:33:13;;;;;;;4.20;2.08;;;;;;;6.48;93.44;99537.34;5054132;28;20406;-70
2023/03/27 03:35:38;;;;;;;4.63;2.72;;;;;;;6.55;93.51;99520.50;5053860;28;20037;-70
2023/03/27 03:38:05;;;;;;;3.85;2.17;;;;;;;6.94;92.88;99560.41;5053854;28;20360;-70
2023/03/27 03:40:31;;;;;;;6.22;2.10;;;;;;;6.99;91.45;99548.66;5053416;28;20116;-70
2023/03/27 03:42:57;;;;;;;7.65;2.05;;;;;;;7.11;90.26;99545.63;5053686;28;20033;-70
2023/03/27 03:45:22;;;;;;;7.00;3.08;;;;;;;7.13;90.04;99554.28;5053724;28;20036;-70
2023/03/27 03:47:47;;;;;;;6.55;2.10;;;;;;;6.84;89.90;99483.94;5053819;28;20173;-72
2023/03/27 03:50:13;;;;;;;9.68;2.58;;;;;;;7.18;90.35;99539.00;5033873;28;20032;-70
2023/03/27 03:52:39;;;;;;;5.30;2.53;;;;;;;7.11;91.56;99541.34;5053103;28;20033;-71
2023/03/27 03:55:06;;;;;;;12.65;2.80;;;;;;;6.70;92.24;99499.69;5053298;28;20029;-70
2023/03/27 03:57:31;;;;;;;5.65;2.80;;;;;;;6.53;94.16;99518.69;5053312;28;20112;-69
2023/03/27 03:59:57;;;;;;;8.93;1.85;;;;;;;6.49;93.78;99492.06;5053132;28;20029;-70
2023/03/27 04:02:29;;;;;;;4.50;2.30;;;;;;;6.73;93.65;99532.25;5052962;28;20056;-70
2023/03/27 04:04:56;;;;;;;6.00;2.70;;;;;;;6.67;93.37;99529.47;5052032;28;20036;-70
2023/03/27 04:07:22;;;;;;;5.57;2.08;;;;;;;6.70;94.49;99545.84;5051444;28;20124;-75
2023/03/27 04:09:49;;;;;;;8.15;2.05;;;;;;;6.58;95.08;99525.75;5033744;28;20136;-72
2023/03/27 04:12:15;;;;;;;7.80;2.45;;;;;;;6.64;94.92;99517.41;5052724;28;20063;-69
2023/03/27 04:14:41;;;;;;;6.78;2.50;;;;;;;6.71;94.68;99528.78;5053289;28;20549;-69
2023/03/27 04:17:06;;;;;;;7.80;2.75;;;;;;;6.69;95.08;99522.72;5052644;28;20049;-73
2023/03/27 04:19:32;;;;;;;4.78;2.50;;;;;;;6.70;95.39;99527.03;5052981;28;20025;-72
2023/03/27 04:22:00;;;;;;;10.05;2.65;;;;;;;6.77;95.54;99523.88;5052387;28;20025;-73
2023/03/27 04:24:29;;;;;;;5.60;3.03;;;;;;;6.73;95.58;99524.56;5052603;28;20021;-72
2023/03/27 04:26:57;;;;;;;6.63;3.00;;;;;;;6.63;95.44;99513.13;5052265;28;20128;-71
2023/03/27 04:29:24;;;;;;;6.95;3.15;;;;;;;6.53;95.95;99493.06;5052708;28;20411;-69
2023/03/27 04:31:50;;;;;;;6.15;2.97;;;;;;;6.51;97.00;99508.41;5052387;28;20459;-71
2023/03/27 04:34:19;;;;;;;14.95;4.40;;;;;;;5.98;97.92;99428.59;5052005;28;20490;-70
2023/03/27 04:36:45;;;;;;;12.70;4.70;;;;;;;6.22;98.63;99459.47;5052064;28;20894;-70
2023/03/27 04:39:10;;;;;;;11.13;4.40;;;;;;;6.10;99.40;99459.00;5043123;28;20025;-69
2023/03/27 04:41:37;;;;;;;13.20;4.78;;;;;;;6.54;99.50;99517.88;5051645;28;20494;-70
2023/03/27 04:44:04;;;;;;;13.13;4.93;;;;;;;6.57;98.84;99492.38;5052387;28;20109;-72
2023/03/27 04:46:30;;;;;;;11.50;5.35;;;;;;;6.87;97.81;99507.16;5050749;28;20085;-69
2023/03/27 04:48:55;;;;;;;20.75;10.45;;;;;;;6.99;98.00;99510.16;5052006;28;20091;-70
2023/03/27 04:51:20;;;;;;;22.77;12.57;;;;;;;7.06;96.72;99522.34;5051506;28;20025;-73
2023/03/27 04:53:46;;;;;;;23.90;12.60;;;;;;;6.58;98.09;99458.19;5051920;28;20025;-75
2023/03/27 04:56:12;;;;;;;17.48;10.40;;;;;;;6.72;98.87;99480.09;5051747;28;20048;-73
2023/03/27 04:58:40;;;;;;;13.23;6.75;;;;;;;6.66;98.46;99455.94;5051689;28;20032;-69
2023/03/27 05:01:05;;;;;;;13.30;7.25;;;;;;;7.08;98.37;99515.59;5051439;28;20036;-72
2023/03/27 05:03:31;;;;;;;11.80;5.20;;;;;;;7.16;97.27;99520.13;5048630;28;20029;-69
2023/03/27 05:05:57;;;;;;;9.60;4.93;;;;;;;7.17;96.57;99512.47;5051208;28;20040;-73
2023/03/27 05:08:22;;;;;;;12.10;4.32;;;;;;;7.11;97.17;99504.56;5051449;28;20089;-71
2023/03/27 05:10:48;;;;;;;15.48;5.10;;;;;;;7.06;97.63;99504.41;5051565;28;20028;-69
2023/03/27 05:13:14;;;;;;;10.30;4.72;;;;;;;6.97;97.81;99492.13;5051736;28;20025;-71
2023/03/27 05:15:39;;;;;;;9.85;4.30;;;;;;;7.13;98.38;99493.53;5046598;28;20033;-73
2023/03/27 05:18:05;;;;;;;20.45;10.98;;;;;;;7.26;98.05;99494.84;5042155;28;20065;-70
2023/03/27 05:20:32;;;;;;;15.85;9.23;;;;;;;7.10;97.89;99436.97;5038290;28;20036;-71
2023/03/27 05:22:57;;;;;;;20.67;9.45;;;;;;;7.41;98.05;99488.47;5040560;28;20021;-72
2023/03/27 05:25:23;;;;;;;13.48;7.28;;;;;;;7.46;98.66;99468.94;5051282;28;20458;-72
2023/03/27 05:27:50;;;;;;;14.95;6.93;;;;;;;7.55;99.15;99474.41;5051008;28;20105;-71
2023/03/27 05:30:19;;;;;;;13.70;5.30;;;;;;;7.61;99.20;99461.78;5049822;28;20410;-70
2023/03/27 05:32:50;;;;;;;10.50;5.30;;;;;;;7.67;99.64;99460.22;5050786;28;20035;-72
2023/03/27 05:35:18;;;;;;;15.98;6.40;;;;;;;7.70;100.00;99438.06;5047867;28;20567;-70
2023/03/27 05:37:47;;;;;;;18.17;6.45;;;;;;;7.84;100.00;99447.88;5048009;28;20025;-72
2023/03/27 05:40:15;;;;;;;12.10;5.88;;;;;;;7.95;100.00;99443.97;5050952;28;20029;-69
2023/03/27 05:42:44;;;;;;;12.02;6.10;;;;;;;8.01;100.00;99448.41;5031737;28;20470;-69
2023/03/27 05:45:10;;;;;;;11.60;7.00;;;;;;;7.99;100.00;99444.91;5050471;28;20032;-70
2023/03/27 05:47:48;;;;;;;13.40;7.80;;;;;;;7.95;100.00;99443.97;5046883;28;20072;-69
2023/03/27 05:50:14;;;;;;;13.30;8.27;;;;;;;7.98;100.00;99435.50;5048929;28;20028;-74
2023/03/27 05:52:40;;;;;;;18.17;10.02;;;;;;;8.08;100.00;99446.06;5050387;28;20025;-76
2023/03/27 05:55:07;;;;;;;27.67;11.68;;;;;;;7.98;100.00;99427.78;5050284;28;20394;-72
2023/03/27 05:57:35;;;;;;;27.05;14.57;;;;;;;7.87;100.00;99424.88;5050432;28;20033;-73
2023/03/27 06:00:01;;;;;;;27.58;17.20;;;;;;;7.84;100.00;99435.94;5050189;28;20094;-70
2023/03/27 06:02:27;;;;;;;30.98;16.65;;;;;;;7.96;100.00;99438.00;5050436;28;20418;-71
2023/03/27 06:04:52;;;;;;;33.97;19.85;;;;;;;8.04;100.00;99435.69;5050312;28;20037;-69
2023/03/27 06:07:17;;;;;;;31.33;18.90;;;;;;;8.14;100.00;99436.81;5050554;28;20040;-71
2023/03/27 06:09:44;;;;;;;38.70;22.00;;;;;;;8.14;100.00;99423.94;5047297;28;20095;-69
2023/03/27 06:12:10;;;;;;;45.63;25.70;;;;;;;8.23;100.00;99406.25;5047683;28;20043;-72
2023/03/27 06:14:36;;;;;;;54.85;31.98;;;;;;;8.45;100.00;99423.16;5047365;28;20047;-69
2023/03/27 06:17:01;;;;;;;45.75;28.58;;;;;;;8.80;100.00;99427.56;5047543;28;20049;-69
2023/03/27 06:19:27;;;;;;;42.22;26.83;;;;;;;9.12;100.00;99410.41;5047651;28;20123;-69
2023/03/27 06:21:52;;;;;;;37.05;25.33;;;;;;;9.45;100.00;99409.50;5047620;28;20407;-71
2023/03/27 06:24:18;;;;;;;34.53;23.70;;;;;;;9.64;100.00;99404.78;5047486;28;20106;-70
2023/03/27 06:26:43;;;;;;;41.72;26.92;;;;;;;9.63;100.00;99403.06;5037736;28;20033;-70
2023/03/27 06:29:09;;;;;;;37.95;25.95;;;;;;;9.68;100.00;99385.97;5045963;28;20048;-71
2023/03/27 06:31:35;;;;;;;31.05;22.88;;;;;;;9.86;100.00;99355.47;5046524;28;20032;-72
2023/03/27 06:34:00;;;;;;;36.80;26.70;;;;;;;10.27;100.00;99390.72;5047073;28;20036;-68
2023/03/27 06:36:26;;;;;;;36.22;25.58;;;;;;;10.40;100.00;99407.34;5046073;28;20071;-68
2023/03/27 06:38:53;;;;;;;45.53;27.48;;;;;;;10.42;100.00;99403.09;5047257;28;20513;-70
2023/03/27 06:41:19;;;;;;;40.22;25.80;;;;;;;10.55;100.00;99401.63;5049093;28;20427;-71
2023/03/27 06:43:45;;;;;;;39.53;26.00;;;;;;;10.71;100.00;99399.34;5049691;28;20024;-69
2023/03/27 06:46:11;;;;;;;35.53;24.10;;;;;;;10.84;100.00;99402.19;5049835;28;20032;-68
2023/03/27 06:48:38;;;;;;;36.05;25.50;;;;;;;11.02;100.00;99397.34;5049464;28;20028;-68
2023/03/27 06:51:04;;;;;;;33.88;25.00;;;;;;;11.02;100.00;99374.94;5049267;28;20044;-71
2023/03/27 06:53:30;;;;;;;35.92;24.90;;;;;;;11.22;100.00;99379.59;5049538;28;20029;-70
2023/03/27 06:55:56;;;;;;;32.42;24.60;;;;;;;11.38;100.00;99376.41;5049672;28;20434;-71
2023/03/27 06:58:21;;;;;;;32.38;21.75;;;;;;;11.58;100.00;99375.84;5048998;28;20508;-71
2023/03/27 07:00:48;;;;;;;28.20;21.75;;;;;;;11.53;100.00;99326.66;5049659;28;20098;-70
2023/03/27 07:03:14;;;;;;;37.85;27.88;;;;;;;12.02;100.00;99367.03;5049341;28;20017;-71
2023/03/27 07:05:40;;;;;;;42.47;27.00;;;;;;;12.00;100.00;99327.31;5049548;28;20032;-71
2023/03/27 07:08:10;;;;;;;31.67;23.55;;;;;;;12.08;100.00;99330.88;5049419;28;20463;-72
2023/03/27 07:10:35;;;;;;;31.80;22.38;;;;;;;12.36;100.00;99364.84;5048724;28;20458;-71
2023/03/27 07:13:01;;;;;;;30.95;22.75;;;;;;;12.58;100.00;99358.19;5049333;28;20072;-70
2023/03/27 07:15:26;;;;;;;28.63;22.15;;;;;;;12.78;100.00;99353.22;5049775;28;20403;-70
2023/03/27 07:17:56;;;;;;;28.10;21.85;;;;;;;13.04;100.00;99350.88;5048930;28;20051;-69
2023/03/27 07:20:23;;;;;;;27.38;21.20;;;;;;;13.30;100.00;99345.06;5046750;28;20053;-73
2023/03/27 07:22:50;;;;;;;26.67;20.27;;;;;;;13.57;100.00;99339.22;5046144;28;20045;-72
2023/03/27 07:25:16;;;;;;;23.52;17.85;;;;;;;13.79;99.17;99335.91;5038360;28;20087;-72
2023/03/27 07:27:41;;;;;;;21.73;17.48;;;;;;;14.03;95.25;99338.63;5046732;28;20147;-72
2023/03/27 07:30:27;;;;;;;21.20;16.25;;;;;;;14.16;95.12;99321.38;5063870;28;20047;-71
2023/03/27 07:32:52;;;;;;;19.17;13.82;;;;;;;14.47;90.18;99323.22;5065896;28;20056;-71
2023/03/27 07:35:18;;;;;;;13.32;10.73;;;;;;;14.75;85.92;99320.69;5066331;28;20041;-68
2023/03/27 07:37:44;;;;;;;18.35;12.82;;;;;;;14.90;85.51;99310.28;5066514;28;20036;-68
2023/03/27 07:40:14;;;;;;;16.00;10.88;;;;;;;15.09;83.13;99293.00;5064931;28;20044;-71
2023/03/27 07:42:44;;;;;;;13.23;10.75;;;;;;;15.00;82.08;99254.00;5064157;28;20038;-70
2023/03/27 07:45:12;;;;;;;14.75;10.30;;;;;;;15.50;80.45;99286.88;5047460;28;20040;-70
2023/03/27 07:47:42;;;;;;;13.48;10.40;;;;;;;15.67;81.68;99278.16;5063742;28;20553;-72
2023/03/27 07:50:13;;;;;;;15.63;10.85;;;;;;;15.77;78.94;99284.19;5062381;28;20037;-70
2023/03/27 07:52:45;;;;;;;14.52;10.82;;;;;;;15.89;79.58;99280.69;5064627;28;20041;-70
2023/03/27 07:55:13;;;;;;;13.00;10.55;;;;;;;15.78;78.74;99245.13;5061695;28;20032;-71
2023/03/27 07:57:43;;;;;;;14.95;12.63;;;;;;;16.08;80.32;99273.69;5055559;28;20072;-71
2023/03/27 08:00:12;;;;;;;11.80;9.93;;;;;;;16.25;76.59;99277.06;5045679;28;20175;-73
2023/03/27 08:02:38;;;;;;;14.65;10.45;;;;;;;16.30;75.94;99280.50;5050199;28;20462;-71
2023/03/27 08:05:05;;;;;;;14.50;10.27;;;;;;;16.07;78.22;99233.75;5052673;28;20117;-70
2023/03/27 08:07:31;;;;;;;13.27;11.13;;;;;;;16.28;75.85;99258.81;5052581;28;20029;-71
2023/03/27 08:09:56;;;;;;;13.57;10.48;;;;;;;16.33;75.86;99235.34;5052257;28;20682;-69
2023/03/27 08:12:22;;;;;;;12.57;10.60;;;;;;;16.45;76.49;99252.66;5051033;28;20546;-71
2023/03/27 08:14:47;;;;;;;12.88;9.32;;;;;;;16.40;75.34;99236.16;5052799;28;20029;-71
2023/03/27 08:17:12;;;;;;;13.20;11.00;;;;;;;16.47;75.75;99232.66;5052232;28;20479;-69
2023/03/27 08:19:38;;;;;;;9.85;7.75;;;;;;;16.66;76.30;99210.78;5051915;28;20021;-72
2023/03/27 08:22:03;;;;;;;13.73;9.02;;;;;;;16.69;73.44;99214.25;5052485;28;20021;-69
2023/03/27 08:24:29;;;;;;;13.57;9.30;;;;;;;16.72;73.99;99185.56;5042882;28;20025;-70
2023/03/27 08:26:55;;;;;;;12.65;7.68;;;;;;;16.76;73.57;99171.59;5049656;28;20030;-69
2023/03/27 08:29:20;;;;;;;10.57;8.63;;;;;;;16.61;73.33;99142.22;5052293;28;20017;-70
2023/03/27 08:31:46;;;;;;;10.63;8.27;;;;;;;16.81;73.66;99157.66;5051453;28;20082;-74
2023/03/27 08:34:11;;;;;;;12.07;8.40;;;;;;;16.87;74.19;99135.88;5051665;28;20032;-73
2023/03/27 08:36:37;;;;;;;11.65;9.15;;;;;;;16.98;73.09;99149.72;5052326;28;20037;-72
2023/03/27 08:39:03;;;;;;;11.35;7.57;;;;;;;17.16;73.05;99131.25;5050948;28;20033;-72
2023/03/27 08:41:37;;;;;;;9.68;7.55;;;;;;;17.32;72.25;99119.78;5051979;28;20445;-71
2023/03/27 08:44:06;;;;;;;12.10;8.88;;;;;;;17.43;73.29;99111.81;5050628;28;20028;-71
2023/03/27 08:46:50;;;;;;;7.50;5.47;;;;;;;17.46;73.31;99094.38;5051715;28;20584;-69
2023/03/27 08:49:17;;;;;;;12.98;8.68;;;;;;;17.16;71.39;99071.28;5050355;28;20063;-69
2023/03/27 08:52:03;;;;;;;11.55;9.18;;;;;;;17.17;73.75;99091.28;5051836;28;20039;-70
2023/03/27 08:54:31;;;;;;;14.05;8.70;;;;;;;17.15;72.10;99070.44;5050784;28;20036;-77
2023/03/27 08:56:57;;;;;;;12.93;8.82;;;;;;;17.62;71.53;99073.31;5048827;28;20487;-69
2023/03/27 08:59:29;;;;;;;8.73;6.75;;;;;;;18.00;70.02;99073.63;5051861;28;20035;-69
2023/03/27 09:02:23;;;;;;;7.80;5.50;;;;;;;18.03;66.87;99064.00;5051599;28;20083;-73
2023/03/27 09:05:18;;;;;;;10.20;6.72;;;;;;;18.13;63.95;99050.78;5050266;28;20083;-71
2023/03/27 09:07:54;;;;;;;12.50;8.00;;;;;;;18.15;65.38;99034.19;5049994;28;20029;-75
2023/03/27 09:10:47;;;;;;;10.98;6.38;;;;;;;18.17;65.87;99031.53;5049218;28;20025;-72
2023/03/27 09:13:28;;;;;;;9.65;7.40;;;;;;;18.10;66.58;99013.38;5050773;28;20078;-68
2023/03/27 09:16:03;;;;;;;10.18;7.72;;;;;;;18.08;65.72;99022.13;5051053;28;20078;-69
2023/03/27 09:18:42;;;;;;;13.02;9.80;;;;;;;18.03;68.86;99019.59;5051418;28;20049;-72
2023/03/27 09:21:18;;;;;;;16.08;11.57;;;;;;;17.82;70.56;98983.38;5049953;28;20056;-73
2023/03/27 09:23:45;;;;;;;13.07;10.55;;;;;;;17.84;69.75;99002.47;5049214;28;20083;-73
2023/03/27 09:26:29;;;;;;;14.73;7.75;;;;;;;17.68;67.88;98976.63;5048937;28;20131;-74
2023/03/27 09:29:02;;;;;;;12.02;7.88;;;;;;;17.67;66.76;98984.47;5049204;28;20075;-74
2023/03/27 09:31:30;;;;;;;13.32;8.38;;;;;;;17.57;65.79;98983.75;5051300;28;20112;-69
2023/03/27 09:33:59;;;;;;;7.63;6.05;;;;;;;17.48;67.19;98983.91;5050562;28;20043;-70
2023/03/27 09:36:24;;;;;;;12.47;9.07;;;;;;;17.43;68.59;98981.38;5051370;28;20028;-72
2023/03/27 09:38:57;;;;;;;13.52;8.90;;;;;;;17.26;68.85;98948.56;5051340;28;20275;-70
2023/03/27 09:41:30;;;;;;;10.10;7.80;;;;;;;17.40;68.11;98978.81;5051163;28;20119;-70
2023/03/27 09:44:02;;;;;;;9.50;7.18;;;;;;;17.51;68.90;98971.69;5050799;28;20447;-68
2023/03/27 09:46:28;;;;;;;9.52;7.25;;;;;;;17.55;68.64;98968.13;5051241;28;20032;-74
2023/03/27 09:49:13;;;;;;;9.98;8.13;;;;;;;17.52;69.77;98959.47;5050374;28;20025;-72
2023/03/27 09:51:43;;;;;;;10.32;7.60;;;;;;;17.42;70.96;98953.53;5051043;28;20502;-70
2023/03/27 09:54:13;;;;;;;14.50;9.32;;;;;;;17.18;72.23;98916.53;5050875;28;20028;-70
2023/03/27 09:56:53;;;;;;;14.30;11.25;;;;;;;17.15;71.86;98895.72;5032208;28;20068;-70
2023/03/27 09:59:36;;;;;;;10.77;8.35;;;;;;;17.36;71.63;98907.56;5050674;28;20025;-72
2023/03/27 10:02:25;;;;;;;8.93;7.32;;;;;;;17.40;70.25;98857.06;5049950;28;20044;-72
2023/03/27 10:04:57;;;;;;;;;;;;;;;18.24;70.22;98899.94;5032508;28;20041;-69
2023/03/27 10:07:25;;;;;;;8.43;6.00;;;;;;;18.47;66.44;98899.50;5050958;28;19943;-70
2023/03/27 10:10:10;;;;;;;10.35;6.90;;;;;;;18.70;67.20;98906.84;5050888;28;20035;-70
2023/03/27 10:12:37;;;;;;;9.77;6.97;;;;;;;18.94;66.36;98912.47;5050831;28;20071;-69
2023/03/27 10:15:23;;;;;;;9.43;7.35;;;;;;;19.24;66.71;98917.91;5050415;28;20036;-71
2023/03/27 10:17:49;;;;;;;10.23;7.78;;;;;;;19.56;65.61;98904.03;5049247;28;20056;-70
2023/03/27 10:20:17;;;;;;;8.73;6.55;;;;;;;19.74;63.33;98894.00;5049885;28;20024;-71
2023/03/27 10:22:51;;;;;;;10.52;7.47;;;;;;;19.84;64.24;98874.53;5048790;28;20128;-71
2023/03/27 10:25:20;;;;;;;9.05;6.43;;;;;;;20.17;62.85;98898.09;5047785;28;20066;-70
2023/03/27 10:27:46;;;;;;;11.07;6.00;;;;;;;20.38;61.99;98894.94;5050263;28;20020;-71
2023/03/27 10:30:24;;;;;;;7.95;6.40;;;;;;;20.51;61.98;98891.03;5050264;28;20025;-69
2023/03/27 10:32:50;;;;;;;8.07;5.40;;;;;;;20.83;59.43;98881.38;5050047;28;20040;-71
2023/03/27 10:35:35;;;;;;;7.13;4.68;;;;;;;20.85;54.30;98862.06;5047573;28;20471;-72
2023/03/27 10:38:03;;;;;;;6.88;4.57;;;;;;;21.13;54.85;98845.47;5048153;28;20017;-75
2023/03/27 10:40:34;;;;;;;6.82;4.78;;;;;;;21.37;53.22;98848.19;5049429;28;20056;-73
2023/03/27 10:43:09;;;;;;;7.50;4.53;;;;;;;21.46;52.98;98849.66;5047001;28;20108;-71
2023/03/27 10:46:06;;;;;;;7.82;4.72;;;;;;;21.58;51.99;98857.13;5049865;28;20029;-74
2023/03/27 10:48:47;;;;;;;9.27;4.82;;;;;;;21.55;49.91;98846.69;5005358;28;20552;-72
2023/03/27 10:51:50;;;;;;;5.47;3.80;;;;;;;21.65;48.72;98836.75;5007060;28;20456;-71
2023/03/27 10:54:34;;;;;;;9.13;4.07;;;;;;;21.62;48.22;98852.63;5007961;28;20030;-70
2023/03/27 10:57:13;;;;;;;6.20;4.25;;;;;;;21.41;50.72;98822.66;5007996;28;20037;-73
2023/03/27 10:59:47;;;;;;;5.63;3.85;;;;;;;21.26;50.34;98830.16;5007899;28;20113;-69
2023/03/27 11:02:22;;;;;;;8.57;5.05;;;;;;;21.04;51.31;98818.66;5005132;28;20034;-68
2023/03/27 11:05:03;;;;;;;7.60;5.20;;;;;;;20.73;52.93;98822.25;5007454;28;20447;-69
2023/03/27 11:07:40;;;;;;;10.05;4.95;;;;;;;20.58;54.21;98815.69;5007186;28;20516;-69
2023/03/27 11:10:18;;;;;;;7.45;5.60;;;;;;;20.90;53.96;98813.84;5007126;28;20034;-71
2023/03/27 11:13:16;;;;;;;7.50;5.43;;;;;;;21.12;53.48;98793.88;5006853;28;20435;-68
2023/03/27 11:15:50;;;;;;;11.95;5.35;;;;;;;20.94;53.23;98797.13;4967273;28;20078;-71
2023/03/27 11:18:25;;;;;;;9.38;5.97;;;;;;;20.65;53.81;98788.38;4968225;28;20061;-73
2023/03/27 11:21:00;;;;;;;8.43;5.80;;;;;;;20.28;55.51;98786.88;4967785;28;20528;-72
2023/03/27 11:23:53;;;;;;;8.82;6.13;;;;;;;20.03;57.05;98783.22;4968138;28;20037;-73
2023/03/27 11:26:23;;;;;;;6.88;5.47;;;;;;;19.72;58.03;98752.63;5003059;28;20113;-72
2023/03/27 11:29:12;;;;;;;9.15;6.40;;;;;;;19.52;58.48;98729.63;4990632;28;20091;-71
2023/03/27 11:31:44;;;;;;;7.18;5.35;;;;;;;19.68;55.06;98710.88;5007004;28;20048;-74
2023/03/27 11:34:41;;;;;;;8.88;5.30;;;;;;;19.91;55.12;98752.13;5000533;28;20065;-73
2023/03/27 11:37:14;;;;;;;10.35;6.03;;;;;;;19.85;55.88;98747.94;5010589;28;20033;-71
2023/03/27 11:40:08;;;;;;;7.22;6.00;;;;;;;19.89;57.67;98743.47;4993658;28;20049;-73
2023/03/27 11:42:38;;;;;;;14.45;5.65;;;;;;;20.28;55.07;98739.72;4971484;28;20074;-69
2023/03/27 11:45:08;;;;;;;7.13;4.78;;;;;;;20.33;54.43;98712.44;4971555;28;20042;-74
2023/03/27 11:48:00;;;;;;;11.45;5.65;;;;;;;20.58;54.42;98714.28;4971669;28;20046;-73
2023/03/27 11:50:47;;;;;;;9.77;6.28;;;;;;;20.58;54.08;98667.09;4971867;28;20043;-71
2023/03/27 11:53:35;;;;;;;8.57;6.28;;;;;;;20.74;53.54;98691.09;5009594;28;20049;-71
2023/03/27 11:56:26;;;;;;;9.13;6.07;;;;;;;20.99;54.08;98688.47;4971019;28;20105;-73
2023/03/27 11:59:27;;;;;;;24.83;5.10;;;;;;;20.98;52.56;98678.03;4971387;28;20512;-70